Time;durP1;ratioP1;P1;durP2;ratioP2;P2;SDS_P1;SDS_P2;PMS_P1;PMS_P2;Temp;Humidity;BMP_temperature;BMP_pressure;BME280_temperature;BME280_humidity;BME280_pressure;Samples;Min_cycle;Max_cycle;Signal;HPM_P1;HPM_P2
2024/02/24 00:00:44;;;;;;;4.05;2.10;;;5.60;99.90;;;;;;4921833;29;20036;-88
2024/02/24 00:03:10;;;;;;;6.55;2.20;;;5.10;99.90;;;;;;4954993;29;20075;-88
2024/02/24 00:05:37;;;;;;;5.28;2.20;;;5.10;99.90;;;;;;4955464;29;20032;-88
2024/02/24 00:08:04;;;;;;;5.18;2.00;;;5.00;99.90;;;;;;4940578;29;20119;-88
2024/02/24 00:10:31;;;;;;;4.97;2.05;;;4.90;99.90;;;;;;4947466;29;20043;-88
2024/02/24 00:12:57;;;;;;;9.02;2.35;;;4.90;99.90;;;;;;4939403;29;20061;-88
2024/02/24 00:15:24;;;;;;;5.38;2.10;;;4.90;99.90;;;;;;4940103;29;20098;-88
2024/02/24 00:17:51;;;;;;;5.22;2.22;;;6.00;99.90;;;;;;4940101;29;20079;-88
2024/02/24 00:20:17;;;;;;;5.25;2.13;;;5.90;99.90;;;;;;4955956;29;20047;-88
2024/02/24 00:22:44;;;;;;;4.35;2.10;;;5.00;99.90;;;;;;4940311;29;20050;-88
2024/02/24 00:25:11;;;;;;;6.80;2.10;;;4.80;99.90;;;;;;4955582;29;20095;-88
2024/02/24 00:27:37;;;;;;;5.30;2.30;;;5.20;99.90;;;;;;4940084;29;20119;-88
2024/02/24 00:30:05;;;;;;;6.57;2.13;;;5.40;99.90;;;;;;4939941;29;20035;-88
2024/02/24 00:32:31;;;;;;;5.93;2.25;;;4.70;99.90;;;;;;4936692;29;20414;-88
2024/02/24 00:34:58;;;;;;;5.22;2.15;;;4.90;99.90;;;;;;4940231;29;20051;-88
2024/02/24 00:37:24;;;;;;;6.25;2.40;;;4.60;99.90;;;;;;4940003;29;20058;-88
2024/02/24 00:39:51;;;;;;;5.07;2.13;;;4.60;99.90;;;;;;4939144;29;20127;-88
2024/02/24 00:42:18;;;;;;;5.75;2.15;;;4.60;99.90;;;;;;4939965;29;20103;-88
2024/02/24 00:44:45;;;;;;;6.13;2.53;;;4.60;99.90;;;;;;4945275;29;20043;-88
2024/02/24 00:47:12;;;;;;;5.22;2.40;;;4.60;99.90;;;;;;4952970;29;20106;-88
2024/02/24 00:49:39;;;;;;;9.25;2.80;;;4.60;99.90;;;;;;4913594;29;20388;-88
2024/02/24 00:52:05;;;;;;;8.30;2.83;;;4.70;99.90;;;;;;4933845;29;20083;-88
2024/02/24 00:54:32;;;;;;;5.18;2.30;;;4.70;99.90;;;;;;4930438;29;20071;-88
2024/02/24 00:56:58;;;;;;;4.30;2.20;;;5.20;99.90;;;;;;4939976;29;20186;-87
2024/02/24 00:59:26;;;;;;;6.80;2.80;;;4.70;99.90;;;;;;4940026;29;20048;-88
2024/02/24 01:01:53;;;;;;;6.55;2.40;;;4.70;99.90;;;;;;4939539;29;20043;-88
2024/02/24 01:04:19;;;;;;;6.72;2.38;;;4.60;99.90;;;;;;4939543;29;20394;-88
2024/02/24 01:06:46;;;;;;;3.75;2.25;;;5.30;99.90;;;;;;4939417;29;20027;-88
2024/02/24 01:09:13;;;;;;;6.32;2.20;;;4.60;99.90;;;;;;4942652;29;20501;-88
2024/02/24 01:11:39;;;;;;;6.55;2.42;;;5.10;99.90;;;;;;4928818;29;20083;-87
2024/02/24 01:14:06;;;;;;;4.93;2.30;;;4.40;99.90;;;;;;4939716;29;20031;-88
2024/02/24 01:16:33;;;;;;;4.70;2.35;;;4.40;99.90;;;;;;4938715;29;20036;-87
2024/02/24 01:19:01;;;;;;;6.22;2.50;;;4.40;99.90;;;;;;4939541;29;20489;-88
2024/02/24 01:21:28;;;;;;;5.88;2.70;;;4.30;99.90;;;;;;4955171;29;20040;-88
2024/02/24 01:23:55;;;;;;;6.68;2.65;;;4.70;99.90;;;;;;4939433;29;20569;-87
2024/02/24 01:26:22;;;;;;;5.07;2.40;;;4.30;99.90;;;;;;4957836;29;20039;-88
2024/02/24 01:28:51;;;;;;;9.00;2.78;;;4.20;99.90;;;;;;4939101;29;20039;-88
2024/02/24 01:31:17;;;;;;;6.88;2.70;;;4.10;99.90;;;;;;4932551;29;20466;-88
2024/02/24 01:33:44;;;;;;;6.57;2.38;;;4.10;99.90;;;;;;4926836;29;20086;-88
2024/02/24 01:36:11;;;;;;;7.25;2.60;;;4.20;99.90;;;;;;4927939;29;20040;-88
2024/02/24 01:38:37;;;;;;;7.55;2.60;;;4.10;99.90;;;;;;4951962;29;20067;-88
2024/02/24 01:41:04;;;;;;;6.75;2.60;;;4.10;99.90;;;;;;4922058;29;20561;-88
2024/02/24 01:43:33;;;;;;;6.38;2.42;;;4.10;99.90;;;;;;4928881;29;20035;-88
2024/02/24 01:46:00;;;;;;;4.75;2.03;;;4.20;99.90;;;;;;4939059;29;20086;-88
2024/02/24 01:48:26;;;;;;;8.18;2.40;;;4.20;99.90;;;;;;4954983;29;20126;-88
2024/02/24 01:50:53;;;;;;;4.13;2.40;;;4.20;99.90;;;;;;4958025;29;20039;-88
2024/02/24 01:53:21;;;;;;;6.30;2.47;;;5.20;99.90;;;;;;4954778;29;20047;-88
2024/02/24 01:55:49;;;;;;;9.00;2.40;;;4.30;99.90;;;;;;4938790;29;20051;-88
2024/02/24 01:58:20;;;;;;;6.72;2.20;;;4.40;99.90;;;;;;4938329;29;20050;-87
2024/02/24 02:00:47;;;;;;;6.53;2.60;;;5.10;99.90;;;;;;4938535;29;20044;-88
2024/02/24 02:03:14;;;;;;;4.78;1.95;;;4.50;99.90;;;;;;4938126;29;20098;-87
2024/02/24 02:05:53;;;;;;;4.10;2.10;;;4.50;99.90;;;;;;4930600;29;20127;-87
2024/02/24 02:08:19;;;;;;;9.02;2.38;;;5.20;99.90;;;;;;4951927;29;20040;-88
2024/02/24 02:10:48;;;;;;;5.10;1.95;;;5.30;99.90;;;;;;4934665;29;20119;-88
2024/02/24 02:13:15;;;;;;;3.25;1.77;;;4.60;99.90;;;;;;4947473;29;20040;-87
2024/02/24 02:15:42;;;;;;;5.03;2.22;;;4.60;99.90;;;;;;4954051;29;20513;-88
2024/02/24 02:18:09;;;;;;;6.93;2.05;;;4.70;99.90;;;;;;4937864;29;20094;-88
2024/02/24 02:20:36;;;;;;;7.25;2.20;;;5.20;99.90;;;;;;4938454;29;20397;-87
2024/02/24 02:23:03;;;;;;;6.45;2.20;;;5.20;99.90;;;;;;4928224;29;20047;-89
2024/02/24 02:25:30;;;;;;;4.28;1.60;;;4.70;99.90;;;;;;4930350;29;20451;-88
2024/02/24 02:27:56;;;;;;;6.03;2.10;;;4.70;99.90;;;;;;4935145;29;20098;-88
2024/02/24 02:30:23;;;;;;;5.35;1.95;;;4.70;99.90;;;;;;4943268;29;20564;-88
2024/02/24 02:32:49;;;;;;;4.70;1.83;;;4.70;99.90;;;;;;4933234;29;20052;-88
2024/02/24 02:35:16;;;;;;;5.70;2.20;;;4.80;99.90;;;;;;4938103;29;20112;-88
2024/02/24 02:37:43;;;;;;;5.03;2.22;;;5.90;99.90;;;;;;4935472;29;20047;-88
2024/02/24 02:40:10;;;;;;;5.32;2.10;;;4.80;99.90;;;;;;4928455;29;20050;-88
2024/02/24 02:42:37;;;;;;;5.43;2.13;;;4.80;99.90;;;;;;4937875;29;20043;-88
2024/02/24 02:45:04;;;;;;;5.97;2.03;;;4.80;99.90;;;;;;4937937;29;20074;-88
2024/02/24 02:47:30;;;;;;;5.22;1.80;;;4.80;99.90;;;;;;4952026;29;20083;-88
2024/02/24 02:49:57;;;;;;;4.43;2.00;;;5.00;99.90;;;;;;4934624;29;20127;-88
2024/02/24 02:52:24;;;;;;;4.40;1.90;;;4.80;99.90;;;;;;4937053;29;20043;-88
2024/02/24 02:54:50;;;;;;;6.05;2.40;;;4.80;99.90;;;;;;4949570;29;20055;-88
2024/02/24 02:57:17;;;;;;;6.38;2.30;;;4.70;99.90;;;;;;4934937;29;20137;-88
2024/02/24 02:59:44;;;;;;;4.40;2.13;;;4.70;99.90;;;;;;4931520;29;20040;-88
2024/02/24 03:02:10;;;;;;;4.35;2.45;;;4.80;99.90;;;;;;4937091;29;20044;-88
2024/02/24 03:04:37;;;;;;;5.18;2.10;;;5.10;99.90;;;;;;4953388;29;20035;-87
2024/02/24 03:07:03;;;;;;;3.78;2.08;;;4.70;99.90;;;;;;4944726;29;20083;-87
2024/02/24 03:09:30;;;;;;;4.03;1.88;;;4.70;99.90;;;;;;4953251;29;20052;-88
2024/02/24 03:11:57;;;;;;;6.13;1.83;;;5.60;99.90;;;;;;4938137;29;20126;-88
2024/02/24 03:14:23;;;;;;;5.30;2.10;;;4.60;99.90;;;;;;4938082;29;20445;-88
2024/02/24 03:16:50;;;;;;;5.97;1.70;;;4.60;99.90;;;;;;4938196;29;20087;-88
2024/02/24 03:19:17;;;;;;;5.47;1.98;;;4.60;99.90;;;;;;4937677;29;20047;-88
2024/02/24 03:21:43;;;;;;;6.45;2.10;;;4.50;99.90;;;;;;4953610;29;20051;-88
2024/02/24 03:24:10;;;;;;;3.38;1.75;;;4.40;99.90;;;;;;4937682;29;20046;-88
2024/02/24 03:26:39;;;;;;;4.50;2.00;;;5.20;99.90;;;;;;4946257;29;20036;-88
2024/02/24 03:29:06;;;;;;;6.05;1.80;;;5.10;99.90;;;;;;4934056;29;20508;-88
2024/02/24 03:31:32;;;;;;;4.00;1.70;;;4.30;99.90;;;;;;4918836;29;20036;-88
2024/02/24 03:33:59;;;;;;;5.47;1.83;;;4.30;99.90;;;;;;4950706;29;20143;-88
2024/02/24 03:36:26;;;;;;;4.00;2.10;;;5.20;99.90;;;;;;4937684;29;20126;-88
2024/02/24 03:38:52;;;;;;;4.47;1.75;;;4.60;99.90;;;;;;4937180;29;20086;-88
2024/02/24 03:41:19;;;;;;;5.43;1.88;;;4.20;99.90;;;;;;4937638;29;20512;-88
2024/02/24 03:43:46;;;;;;;3.78;1.80;;;4.10;99.90;;;;;;4937185;29;20043;-87
2024/02/24 03:46:12;;;;;;;5.10;1.77;;;4.30;99.90;;;;;;4937640;29;20046;-88
2024/02/24 03:48:39;;;;;;;5.25;2.03;;;4.10;99.90;;;;;;4937306;29;20032;-88
2024/02/24 03:51:05;;;;;;;4.00;1.88;;;5.00;99.90;;;;;;4937601;29;20040;-88
2024/02/24 03:53:32;;;;;;;4.30;1.90;;;4.00;99.90;;;;;;4951893;29;20091;-88
2024/02/24 03:55:59;;;;;;;5.53;2.15;;;4.70;99.90;;;;;;4937643;29;20409;-88
2024/02/24 03:58:25;;;;;;;5.25;1.75;;;5.00;99.90;;;;;;4937607;29;20057;-88
2024/02/24 04:00:52;;;;;;;3.65;1.80;;;4.00;99.90;;;;;;4937520;29;20075;-88
2024/02/24 04:03:19;;;;;;;3.88;1.80;;;4.00;99.90;;;;;;4937124;29;20409;-88
2024/02/24 04:05:48;;;;;;;4.88;2.00;;;4.20;99.90;;;;;;4927776;29;20482;-88
2024/02/24 04:08:15;;;;;;;4.35;1.65;;;3.90;99.90;;;;;;4921747;29;20075;-88
2024/02/24 04:10:44;;;;;;;3.03;1.65;;;3.90;99.90;;;;;;4936977;29;20067;-88
2024/02/24 04:13:11;;;;;;;4.47;2.10;;;3.90;99.90;;;;;;4947532;29;20075;-88
2024/02/24 04:15:37;;;;;;;4.47;2.08;;;3.90;99.90;;;;;;4949828;29;20066;-87
2024/02/24 04:18:04;;;;;;;4.15;1.95;;;5.10;99.90;;;;;;4940228;29;20493;-88
2024/02/24 04:20:31;;;;;;;4.55;2.00;;;3.80;99.90;;;;;;4940263;29;20489;-88
2024/02/24 04:22:58;;;;;;;5.60;2.00;;;4.30;99.90;;;;;;4940609;29;20110;-88
2024/02/24 04:25:24;;;;;;;4.80;1.90;;;3.80;99.90;;;;;;4934035;29;20134;-88
2024/02/24 04:27:51;;;;;;;4.65;2.10;;;3.80;99.90;;;;;;4933633;29;20043;-87
2024/02/24 04:30:17;;;;;;;5.50;2.03;;;3.80;99.90;;;;;;4950494;29;20046;-87
2024/02/24 04:32:44;;;;;;;6.07;2.30;;;3.70;99.90;;;;;;4940183;29;20107;-88
2024/02/24 04:35:11;;;;;;;3.83;2.03;;;3.70;99.90;;;;;;4938375;29;20497;-88
2024/02/24 04:37:38;;;;;;;6.47;2.28;;;3.70;99.90;;;;;;4934486;29;20039;-88
2024/02/24 04:40:06;;;;;;;3.92;2.00;;;4.80;99.90;;;;;;4939778;29;20142;-88
2024/02/24 04:42:32;;;;;;;6.20;2.00;;;3.60;99.90;;;;;;4940363;29;20212;-88
2024/02/24 04:44:59;;;;;;;6.13;2.20;;;3.60;99.90;;;;;;4940066;29;20536;-87
2024/02/24 04:47:28;;;;;;;4.30;2.17;;;3.60;99.90;;;;;;4927568;29;20038;-88
2024/02/24 04:49:55;;;;;;;3.88;2.10;;;3.60;99.90;;;;;;4940267;29;20492;-87
2024/02/24 04:52:22;;;;;;;5.70;2.50;;;3.60;99.90;;;;;;4936462;29;20091;-88
2024/02/24 04:54:49;;;;;;;5.68;2.45;;;4.50;99.90;;;;;;4941436;29;20036;-88
2024/02/24 04:57:15;;;;;;;4.72;2.30;;;4.20;99.90;;;;;;4939710;29;20039;-88
2024/02/24 04:59:42;;;;;;;4.97;2.70;;;3.50;99.90;;;;;;4941278;29;20047;-87
2024/02/24 05:02:08;;;;;;;7.40;2.50;;;3.50;99.90;;;;;;4940169;29;20043;-88
2024/02/24 05:04:35;;;;;;;7.45;2.85;;;3.50;99.90;;;;;;4939343;29;20072;-88
2024/02/24 05:07:02;;;;;;;4.60;2.60;;;3.50;99.90;;;;;;4927144;29;20040;-88
2024/02/24 05:09:28;;;;;;;5.20;2.70;;;3.50;99.90;;;;;;4939736;29;20497;-88
2024/02/24 05:11:55;;;;;;;6.10;2.88;;;4.20;99.90;;;;;;4939551;29;20043;-88
2024/02/24 05:14:22;;;;;;;5.15;2.80;;;3.40;99.90;;;;;;4961304;29;20035;-88
2024/02/24 05:16:48;;;;;;;6.30;3.15;;;3.40;99.90;;;;;;4944661;29;20071;-88
2024/02/24 05:19:15;;;;;;;7.25;3.08;;;3.30;99.90;;;;;;4942665;29;20048;-88
2024/02/24 05:21:42;;;;;;;6.57;2.95;;;3.30;99.90;;;;;;4939474;29;20040;-88
2024/02/24 05:24:09;;;;;;;6.20;3.22;;;3.30;99.90;;;;;;4942097;29;20074;-88
2024/02/24 05:26:36;;;;;;;6.35;3.25;;;3.20;99.90;;;;;;4938857;29;20074;-88
2024/02/24 05:29:03;;;;;;;5.82;3.22;;;3.20;99.90;;;;;;4939252;29;20046;-88
2024/02/24 05:31:29;;;;;;;6.65;3.30;;;3.20;99.90;;;;;;4945192;29;20036;-88
2024/02/24 05:33:56;;;;;;;7.53;3.55;;;3.20;99.90;;;;;;4920145;29;20064;-88
2024/02/24 05:36:23;;;;;;;9.10;3.53;;;3.10;99.90;;;;;;4931022;29;20044;-88
2024/02/24 05:38:49;;;;;;;6.60;3.47;;;3.10;99.90;;;;;;4939044;29;20048;-88
2024/02/24 05:41:16;;;;;;;7.43;3.45;;;3.20;99.90;;;;;;4935646;29;20044;-88
2024/02/24 05:43:43;;;;;;;6.35;3.20;;;3.10;99.90;;;;;;4938906;29;20040;-88
2024/02/24 05:46:09;;;;;;;7.20;3.67;;;3.70;99.90;;;;;;4938968;29;20560;-88
2024/02/24 05:48:36;;;;;;;10.93;3.95;;;3.00;99.90;;;;;;4938530;29;20126;-88
2024/02/24 05:51:08;;;;;;;7.75;4.10;;;3.00;99.90;;;;;;4938815;29;20044;-88
2024/02/24 05:53:36;;;;;;;8.77;4.10;;;3.00;99.90;;;;;;4938965;29;20421;-88
2024/02/24 05:56:03;;;;;;;7.70;3.95;;;3.00;99.90;;;;;;4935755;29;20055;-87
2024/02/24 05:58:30;;;;;;;8.52;3.88;;;3.00;99.90;;;;;;4932655;29;20052;-88
2024/02/24 06:00:57;;;;;;;8.80;4.47;;;3.00;99.90;;;;;;4929099;29;20519;-88
2024/02/24 06:03:25;;;;;;;6.20;3.85;;;3.80;99.90;;;;;;4938604;29;20535;-87
2024/02/24 06:05:52;;;;;;;8.48;4.40;;;3.00;99.90;;;;;;4938279;29;20135;-87
2024/02/24 06:08:18;;;;;;;9.63;4.93;;;3.00;99.90;;;;;;4937891;29;20118;-88
2024/02/24 06:10:46;;;;;;;10.20;4.43;;;3.00;99.90;;;;;;4957974;29;20097;-88
2024/02/24 06:13:13;;;;;;;9.57;4.75;;;3.50;99.90;;;;;;4935150;29;20103;-87
2024/02/24 06:15:40;;;;;;;9.32;5.30;;;3.90;99.90;;;;;;4928931;29;20071;-88
2024/02/24 06:18:07;;;;;;;10.07;4.80;;;3.10;99.90;;;;;;4947561;29;20066;-88
2024/02/24 06:20:33;;;;;;;7.88;4.80;;;3.10;99.90;;;;;;4953692;29;20043;-88
2024/02/24 06:23:00;;;;;;;11.95;5.25;;;3.20;99.90;;;;;;4925848;29;20043;-88
2024/02/24 06:25:27;;;;;;;9.70;5.10;;;3.20;99.90;;;;;;4937891;29;20036;-88
2024/02/24 06:27:53;;;;;;;9.68;4.82;;;3.20;99.90;;;;;;4938439;29;20039;-88
2024/02/24 06:30:20;;;;;;;9.57;5.13;;;3.50;99.90;;;;;;4936931;29;20035;-88
2024/02/24 06:32:47;;;;;;;11.02;5.07;;;3.30;99.90;;;;;;4930770;29;20040;-88
2024/02/24 06:35:14;;;;;;;10.15;5.20;;;3.40;99.90;;;;;;4937915;29;20182;-88
2024/02/24 06:37:42;;;;;;;10.00;4.82;;;3.40;99.90;;;;;;4951886;29;20122;-88
2024/02/24 06:40:09;;;;;;;8.80;5.13;;;4.20;99.90;;;;;;4950520;29;20044;-88
2024/02/24 06:42:35;;;;;;;9.18;5.75;;;3.40;99.90;;;;;;4937551;29;20047;-88
2024/02/24 06:45:02;;;;;;;8.85;5.07;;;3.40;99.90;;;;;;4937268;29;20036;-88
2024/02/24 06:47:29;;;;;;;12.40;5.82;;;3.50;99.90;;;;;;4937303;29;20040;-88
2024/02/24 06:49:56;;;;;;;8.20;4.95;;;4.00;99.90;;;;;;4938977;29;20401;-88
2024/02/24 06:52:23;;;;;;;10.82;5.25;;;4.20;99.90;;;;;;4937591;29;20036;-88
2024/02/24 06:54:51;;;;;;;9.25;4.78;;;3.40;99.90;;;;;;4937956;29;20118;-88
2024/02/24 06:57:17;;;;;;;8.45;5.10;;;4.30;99.90;;;;;;4950634;29;20438;-88
2024/02/24 06:59:45;;;;;;;8.07;5.15;;;4.40;99.90;;;;;;4937090;29;20042;-86
2024/02/24 07:02:13;;;;;;;12.25;5.55;;;3.50;99.90;;;;;;4937116;29;20192;-88
2024/02/24 07:04:42;;;;;;;10.82;5.18;;;3.30;99.90;;;;;;4937107;29;20525;-88
2024/02/24 07:07:08;;;;;;;9.07;4.95;;;3.60;99.90;;;;;;4937098;29;20040;-88
2024/02/24 07:09:35;;;;;;;9.40;5.47;;;3.70;99.90;;;;;;4952747;29;20051;-88
2024/02/24 07:12:02;;;;;;;8.60;5.30;;;3.30;99.90;;;;;;4937114;29;20035;-87
2024/02/24 07:14:29;;;;;;;9.50;5.95;;;3.30;99.90;;;;;;4936056;29;20131;-87
2024/02/24 07:16:56;;;;;;;8.95;5.32;;;3.30;99.90;;;;;;4937164;29;20071;-88
2024/02/24 07:19:22;;;;;;;10.95;6.03;;;4.20;99.90;;;;;;4949918;29;20080;-88
2024/02/24 07:21:49;;;;;;;10.57;5.70;;;3.40;99.90;;;;;;4953109;29;20039;-88
2024/02/24 07:24:15;;;;;;;12.88;6.57;;;4.00;99.90;;;;;;4937085;29;20143;-88
2024/02/24 07:26:43;;;;;;;10.88;6.07;;;3.50;99.90;;;;;;4938535;29;20036;-88
2024/02/24 07:29:10;;;;;;;12.80;6.00;;;3.80;99.90;;;;;;4953154;29;20039;-87
2024/02/24 07:31:37;;;;;;;11.23;6.40;;;3.50;99.90;;;;;;4937143;29;20035;-88
2024/02/24 07:34:04;;;;;;;11.00;6.15;;;4.60;99.90;;;;;;4949588;29;20056;-88
2024/02/24 07:36:31;;;;;;;12.63;6.35;;;4.50;99.90;;;;;;4934355;29;20521;-88
2024/02/24 07:38:59;;;;;;;10.95;6.10;;;3.80;99.90;;;;;;4952733;29;20052;-88
2024/02/24 07:41:25;;;;;;;10.95;5.95;;;3.80;99.90;;;;;;4935751;29;20086;-87
2024/02/24 07:43:52;;;;;;;10.05;5.95;;;3.80;99.90;;;;;;4937265;29;20047;-88
2024/02/24 07:46:31;;;;;;;16.08;6.57;;;4.90;99.90;;;;;;4939344;29;20040;-88
2024/02/24 07:48:59;;;;;;;10.18;6.28;;;3.90;99.90;;;;;;4939684;29;20046;-88
2024/02/24 07:51:27;;;;;;;11.23;6.25;;;4.00;99.90;;;;;;4944823;29;20126;-88
2024/02/24 07:53:54;;;;;;;10.23;6.47;;;4.10;99.90;;;;;;4958523;29;20123;-88
2024/02/24 07:56:21;;;;;;;10.23;6.10;;;4.70;99.90;;;;;;4940304;29;20075;-88
2024/02/24 07:58:48;;;;;;;11.98;6.30;;;4.10;99.90;;;;;;4940431;29;20042;-88
2024/02/24 08:01:15;;;;;;;10.05;5.68;;;4.20;99.90;;;;;;4941035;29;20039;-88
2024/02/24 08:03:42;;;;;;;11.65;6.00;;;4.30;99.90;;;;;;4937018;29;20426;-88
2024/02/24 08:06:09;;;;;;;10.75;5.60;;;4.30;99.90;;;;;;4932449;29;20095;-88
2024/02/24 08:08:38;;;;;;;10.40;6.05;;;4.30;99.90;;;;;;4939876;29;20505;-88
2024/02/24 08:11:05;;;;;;;11.25;5.82;;;4.40;99.90;;;;;;4940397;29;20075;-87
2024/02/24 08:13:32;;;;;;;10.77;5.70;;;4.40;99.90;;;;;;4930514;29;20497;-87
2024/02/24 08:16:06;;;;;;;13.68;6.22;;;4.50;99.90;;;;;;4940626;29;20044;-87
2024/02/24 08:18:32;;;;;;;10.70;5.80;;;4.50;99.90;;;;;;4935428;29;20067;-87
2024/02/24 08:21:07;;;;;;;10.82;5.95;;;4.60;99.90;;;;;;4940372;29;20074;-89
2024/02/24 08:23:34;;;;;;;10.55;5.93;;;4.60;99.90;;;;;;4932812;29;20040;-88
2024/02/24 08:26:01;;;;;;;11.35;7.00;;;5.00;99.90;;;;;;4932520;29;20046;-88
2024/02/24 08:28:28;;;;;;;11.90;5.82;;;4.70;99.90;;;;;;4955590;29;20503;-87
2024/02/24 08:30:55;;;;;;;12.93;5.97;;;4.80;99.90;;;;;;4940226;29;20079;-88
2024/02/24 08:33:25;;;;;;;10.30;5.72;;;5.00;99.90;;;;;;4940058;29;20059;-88
2024/02/24 08:35:53;;;;;;;11.20;5.95;;;4.90;99.90;;;;;;4939655;29;20915;-88
2024/02/24 08:38:19;;;;;;;12.23;6.30;;;5.70;99.90;;;;;;4939878;29;20485;-88
2024/02/24 08:40:46;;;;;;;9.57;5.85;;;5.50;99.90;;;;;;4939920;29;20087;-87
2024/02/24 08:43:13;;;;;;;8.70;5.90;;;5.00;99.90;;;;;;4945221;29;20698;-88
2024/02/24 08:45:41;;;;;;;11.82;6.00;;;5.10;99.90;;;;;;4940183;29;20036;-88
2024/02/24 08:48:12;;;;;;;8.77;5.70;;;5.20;99.90;;;;;;4939673;29;20027;-88
2024/02/24 08:50:40;;;;;;;12.77;6.88;;;5.70;99.90;;;;;;4955164;29;20493;-88
2024/02/24 08:53:07;;;;;;;11.90;6.25;;;5.20;99.90;;;;;;4939770;29;20039;-88
2024/02/24 08:55:33;;;;;;;12.10;6.28;;;5.20;99.90;;;;;;4939882;29;20044;-88
2024/02/24 08:58:00;;;;;;;8.88;5.43;;;5.20;99.90;;;;;;4939886;29;20123;-88
2024/02/24 09:00:26;;;;;;;9.45;5.28;;;5.30;99.90;;;;;;4938543;29;20044;-88
2024/02/24 09:02:53;;;;;;;9.90;5.18;;;5.80;99.90;;;;;;4939392;29;20054;-88
2024/02/24 09:05:20;;;;;;;9.63;5.40;;;5.40;99.90;;;;;;4932861;29;20500;-88
2024/02/24 09:07:47;;;;;;;10.05;5.30;;;5.70;99.90;;;;;;4933063;29;20050;-88
2024/02/24 09:10:14;;;;;;;8.95;5.03;;;6.10;99.90;;;;;;4949098;29;20040;-88
2024/02/24 09:12:40;;;;;;;9.27;5.13;;;5.80;99.90;;;;;;4949517;29;20063;-87
2024/02/24 09:15:09;;;;;;;9.73;5.38;;;5.70;99.90;;;;;;4935875;29;20565;-89
2024/02/24 09:17:35;;;;;;;11.48;5.30;;;5.80;99.90;;;;;;4935409;29;20047;-86
2024/02/24 09:20:03;;;;;;;8.85;5.30;;;5.80;99.90;;;;;;4938766;29;20131;-86
2024/02/24 09:22:30;;;;;;;8.65;5.10;;;5.90;99.90;;;;;;4937756;29;20044;-86
2024/02/24 09:24:56;;;;;;;9.65;5.30;;;6.20;99.90;;;;;;4938792;29;20047;-86
2024/02/24 09:27:23;;;;;;;8.93;5.00;;;6.60;99.90;;;;;;4935884;29;20044;-85
2024/02/24 09:29:49;;;;;;;9.48;4.70;;;7.00;99.90;;;;;;4938501;29;20039;-86
2024/02/24 09:32:17;;;;;;;8.70;5.65;;;6.40;99.90;;;;;;4937903;29;20056;-86
2024/02/24 09:34:44;;;;;;;9.93;4.78;;;6.20;99.90;;;;;;4936299;29;20051;-86
2024/02/24 09:37:11;;;;;;;8.35;5.25;;;6.30;99.90;;;;;;4938252;29;20425;-86
2024/02/24 09:39:41;;;;;;;7.65;5.00;;;6.40;99.90;;;;;;4941879;29;20046;-86
2024/02/24 09:42:09;;;;;;;8.45;5.30;;;6.40;99.90;;;;;;4939983;29;20059;-86
2024/02/24 09:44:36;;;;;;;8.23;4.72;;;7.40;99.90;;;;;;4931119;29;20432;-86
2024/02/24 09:47:06;;;;;;;8.50;4.85;;;7.10;99.90;;;;;;4964953;29;20046;-86
2024/02/24 09:49:33;;;;;;;9.73;4.72;;;6.70;99.90;;;;;;4937802;29;20039;-86
2024/02/24 09:52:00;;;;;;;7.80;4.97;;;6.70;99.90;;;;;;4937659;29;20414;-86
2024/02/24 09:54:27;;;;;;;7.20;4.22;;;6.90;99.90;;;;;;4937735;29;20051;-86
2024/02/24 09:56:54;;;;;;;8.90;4.68;;;6.80;99.90;;;;;;4937801;29;20043;-86
2024/02/24 09:59:22;;;;;;;7.43;4.65;;;7.30;99.90;;;;;;4934243;29;20118;-86
2024/02/24 10:01:50;;;;;;;9.43;6.30;;;7.80;99.90;;;;;;4936986;29;20514;-86
2024/02/24 10:04:18;;;;;;;9.75;5.60;;;6.90;99.90;;;;;;4951654;29;20048;-85
2024/02/24 10:06:44;;;;;;;9.73;4.65;;;7.50;99.90;;;;;;4940215;29;20080;-85
2024/02/24 10:09:12;;;;;;;8.68;5.43;;;7.50;99.90;;;;;;4929991;29;20036;-86
2024/02/24 10:11:40;;;;;;;8.82;5.30;;;7.10;99.90;;;;;;4946880;29;20486;-86
2024/02/24 10:14:07;;;;;;;9.23;5.30;;;7.20;99.90;;;;;;4930608;29;20065;-86
2024/02/24 10:16:37;;;;;;;10.30;5.47;;;7.10;99.90;;;;;;4934593;29;20135;-86
2024/02/24 10:19:07;;;;;;;8.43;5.07;;;7.70;99.90;;;;;;4933994;29;20039;-86
2024/02/24 10:21:34;;;;;;;9.10;5.55;;;7.40;99.90;;;;;;4926971;29;20043;-86
2024/02/24 10:24:05;;;;;;;8.55;5.70;;;7.20;99.90;;;;;;4949047;29;20183;-86
2024/02/24 10:26:31;;;;;;;10.02;5.57;;;7.30;99.90;;;;;;4938107;29;20090;-86
2024/02/24 10:28:58;;;;;;;9.70;5.07;;;7.30;99.90;;;;;;4937156;29;20036;-86
2024/02/24 10:31:26;;;;;;;11.30;5.90;;;7.90;99.90;;;;;;4937262;29;20119;-86
2024/02/24 10:33:54;;;;;;;8.65;5.28;;;7.30;99.90;;;;;;4937398;29;20052;-86
2024/02/24 10:36:21;;;;;;;8.63;5.53;;;8.10;99.90;;;;;;4937363;29;20066;-86
2024/02/24 10:38:49;;;;;;;8.45;5.60;;;7.70;99.90;;;;;;4933532;29;20048;-86
2024/02/24 10:41:18;;;;;;;11.88;5.60;;;7.20;99.90;;;;;;4924247;29;20086;-85
2024/02/24 10:43:50;;;;;;;8.30;5.13;;;8.00;99.90;;;;;;4935522;29;20040;-86
2024/02/24 10:46:17;;;;;;;9.25;5.72;;;7.30;99.90;;;;;;4936642;29;20047;-85
2024/02/24 10:48:44;;;;;;;8.77;5.90;;;7.50;99.90;;;;;;4952781;29;20036;-85
2024/02/24 10:51:13;;;;;;;10.45;5.55;;;7.70;99.90;;;;;;4936612;29;20743;-85
2024/02/24 10:53:46;;;;;;;9.63;5.35;;;7.80;99.90;;;;;;4932772;29;20036;-85
2024/02/24 10:56:18;;;;;;;9.52;5.32;;;7.80;99.90;;;;;;4938866;29;20050;-85
2024/02/24 10:58:45;;;;;;;9.50;5.50;;;7.80;99.90;;;;;;4936899;29;20083;-85
2024/02/24 11:01:12;;;;;;;9.15;6.10;;;7.80;99.90;;;;;;4937342;29;20043;-85
2024/02/24 11:03:39;;;;;;;10.50;5.90;;;7.90;99.90;;;;;;4935607;29;20047;-85
2024/02/24 11:06:09;;;;;;;9.15;6.30;;;7.90;99.90;;;;;;4952577;29;20090;-85
2024/02/24 11:08:38;;;;;;;8.68;5.18;;;8.40;99.90;;;;;;4952437;29;20563;-85
2024/02/24 11:11:08;;;;;;;9.05;5.47;;;8.60;99.90;;;;;;4936635;29;20123;-85
2024/02/24 11:13:35;;;;;;;8.45;5.55;;;7.80;99.90;;;;;;4936299;29;20035;-85
2024/02/24 11:16:05;;;;;;;9.70;6.18;;;7.80;99.90;;;;;;4936656;29;20118;-86
2024/02/24 11:18:51;;;;;;;9.02;6.10;;;7.70;99.90;;;;;;4952725;29;20043;-85
2024/02/24 11:21:19;;;;;;;;;;;7.70;99.90;;;;;;4935661;29;20076;-86
2024/02/24 11:23:47;;;;;;;7.22;4.85;;;7.70;99.90;;;;;;4934669;29;19929;-85
2024/02/24 11:26:19;;;;;;;8.40;5.15;;;7.70;99.90;;;;;;4940257;29;20505;-85
2024/02/24 11:28:47;;;;;;;12.98;7.85;;;7.90;99.90;;;;;;4940826;29;20488;-85
2024/02/24 11:31:26;;;;;;;12.60;8.50;;;7.90;99.90;;;;;;4953552;29;20549;-85
2024/02/24 11:34:07;;;;;;;7.70;5.18;;;7.90;99.90;;;;;;4952604;29;20052;-85
2024/02/24 11:36:39;;;;;;;7.82;4.90;;;8.00;99.90;;;;;;4947247;29;20112;-85
2024/02/24 11:39:11;;;;;;;9.85;4.90;;;8.10;99.90;;;;;;4941143;29;20040;-85
2024/02/24 11:41:41;;;;;;;7.35;4.60;;;8.80;99.90;;;;;;4937381;29;20042;-85
2024/02/24 11:44:09;;;;;;;10.40;5.53;;;8.30;99.90;;;;;;4958199;29;20046;-85
2024/02/24 11:46:36;;;;;;;8.25;4.50;;;8.70;99.90;;;;;;4940099;29;20074;-85
2024/02/24 11:49:03;;;;;;;6.30;4.10;;;8.40;99.90;;;;;;4939991;29;20067;-85
2024/02/24 11:51:30;;;;;;;7.60;3.85;;;8.50;99.90;;;;;;4954069;29;20032;-84
2024/02/24 11:53:57;;;;;;;8.95;4.57;;;9.00;99.90;;;;;;4968471;29;20405;-85
2024/02/24 11:56:25;;;;;;;8.00;4.57;;;8.80;99.90;;;;;;4939939;29;20549;-85
2024/02/24 11:58:55;;;;;;;7.25;3.88;;;8.90;99.90;;;;;;4946468;29;20066;-85
2024/02/24 12:01:22;;;;;;;6.40;3.47;;;9.00;99.90;;;;;;4940353;29;20123;-85
2024/02/24 12:03:57;;;;;;;6.45;3.25;;;10.10;99.90;;;;;;4939666;29;20545;-85
2024/02/24 12:06:25;;;;;;;;;;;9.20;99.90;;;;;;4940150;29;20449;-85
2024/02/24 12:08:53;;;;;;;7.88;3.53;;;9.10;99.90;;;;;;4955274;29;20005;-85
2024/02/24 12:11:24;;;;;;;5.35;3.13;;;9.20;99.90;;;;;;4955475;29;20544;-85
2024/02/24 12:13:51;;;;;;;6.57;2.95;;;9.40;99.90;;;;;;4939537;29;20047;-85
2024/02/24 12:16:18;;;;;;;5.95;3.17;;;9.10;99.90;;;;;;4939784;29;20039;-85
2024/02/24 12:18:45;;;;;;;6.40;3.08;;;9.10;99.90;;;;;;4939472;29;20401;-85
2024/02/24 12:21:13;;;;;;;6.68;2.85;;;9.00;99.90;;;;;;4938751;29;20083;-85
2024/02/24 12:23:41;;;;;;;5.22;2.70;;;9.70;99.90;;;;;;4938955;29;20048;-85
2024/02/24 12:26:18;;;;;;;7.18;3.30;;;8.80;99.90;;;;;;4939052;29;20493;-85
2024/02/24 12:28:46;;;;;;;6.00;2.97;;;8.80;99.90;;;;;;4954514;29;20039;-85
2024/02/24 12:31:13;;;;;;;4.78;2.60;;;8.80;99.90;;;;;;4939437;29;20493;-85
2024/02/24 12:33:45;;;;;;;5.25;2.83;;;8.90;99.90;;;;;;4921142;29;20837;-85
2024/02/24 12:36:13;;;;;;;6.15;3.22;;;8.70;99.90;;;;;;4919047;29;20092;-85
2024/02/24 12:38:40;;;;;;;5.63;3.10;;;8.60;99.90;;;;;;4924639;29;20043;-85
2024/02/24 12:41:12;;;;;;;5.07;2.88;;;8.60;99.90;;;;;;4922162;29;20072;-85
2024/02/24 12:43:40;;;;;;;5.63;2.90;;;8.70;99.90;;;;;;4925791;29;20084;-85
2024/02/24 12:46:08;;;;;;;6.85;3.03;;;9.30;99.90;;;;;;4918407;29;20044;-85
2024/02/24 12:48:34;;;;;;;6.57;2.50;;;9.30;99.90;;;;;;4920141;29;20762;-85
2024/02/24 12:51:01;;;;;;;4.20;2.30;;;8.90;99.90;;;;;;4936002;29;20099;-85
2024/02/24 12:53:28;;;;;;;4.55;2.30;;;8.80;99.90;;;;;;4936661;29;20048;-85
2024/02/24 12:55:55;;;;;;;6.45;2.17;;;8.90;99.90;;;;;;4937824;29;20486;-85